createdAt,value
2016-11-19T15:21:40.490Z,-17.8
2016-11-19T18:32:02.860Z,23.54
2016-11-19T18:33:15.860Z,23.58
2016-11-19T18:34:33.212Z,23.69
2016-11-19T18:36:46.157Z,23.77
2016-11-19T18:37:37.013Z,23.85
2016-11-19T18:39:04.084Z,23.83
2016-11-19T18:39:53.514Z,23.82
2016-11-19T21:14:27.857Z,23.96
2016-11-19T21:14:43.000Z,23.96
2016-11-19T21:16:26.441Z,23.99
2016-11-19T21:17:41.579Z,24.03
2016-11-19T21:18:45.611Z,23.99
2016-11-19T21:21:35.544Z,24.02
2016-11-19T21:24:30.903Z,24.05
2016-11-19T21:27:26.711Z,23.99
2016-11-19T21:30:22.545Z,23.94
2016-11-19T21:33:18.658Z,23.92
2016-11-19T21:36:14.910Z,23.89
2016-11-19T21:39:11.001Z,23.88
2016-11-19T21:45:22.975Z,27.17
2016-11-19T21:48:22.234Z,23.22
2016-11-19T21:51:13.034Z,18.42
2016-11-19T21:54:07.884Z,14.87
2016-11-19T21:57:02.878Z,12.21
2016-11-19T21:59:58.059Z,10.43
2016-11-19T22:02:53.410Z,9.11
2016-11-19T22:05:48.838Z,8.11
2016-11-19T22:08:44.469Z,7.36
2016-11-19T22:11:40.122Z,6.78
2016-11-19T22:14:35.930Z,6.34
2016-11-19T22:17:31.787Z,5.99
2016-11-19T22:20:27.696Z,5.70
2016-11-19T22:23:23.787Z,5.48
2016-11-19T22:26:19.577Z,5.28
2016-11-19T22:29:15.502Z,5.12
2016-11-19T22:32:11.396Z,5.06
2016-11-19T22:35:07.281Z,4.99
2016-11-19T22:38:03.149Z,4.91
2016-11-19T22:40:59.037Z,4.82
2016-11-19T22:43:55.029Z,4.74
2016-11-19T22:46:51.537Z,4.71
2016-11-19T22:49:47.533Z,4.67
2016-11-19T22:52:43.328Z,4.62
2016-11-19T22:55:39.234Z,4.61
2016-11-19T22:58:35.055Z,4.58
2016-11-19T23:01:31.014Z,4.53
2016-11-19T23:04:26.919Z,4.48
2016-11-19T23:07:22.980Z,4.41
2016-11-19T23:10:19.442Z,4.39
2016-11-19T23:13:15.251Z,4.37
2016-11-19T23:16:11.186Z,4.39
2016-11-19T23:19:07.082Z,4.38
2016-11-19T23:22:03.076Z,4.35
2016-11-19T23:24:59.060Z,4.34
2016-11-19T23:27:55.024Z,4.32
2016-11-19T23:30:51.019Z,4.32
2016-11-19T23:33:46.999Z,4.32
2016-11-19T23:36:43.044Z,4.31
2016-11-19T23:39:39.005Z,4.31
2016-11-19T23:42:34.957Z,4.26
2016-11-19T23:45:30.843Z,4.23
2016-11-19T23:48:26.816Z,4.20
2016-11-19T23:51:22.678Z,4.20
2016-11-19T23:54:18.693Z,4.17
2016-11-19T23:57:15.209Z,4.14
